sensor_id;sensor_type;location;lat;lon;timestamp;pressure;altitude;pressure_sealevel;temperature;humidity
30935;BME280;51033;42.648;23.292;2022-12-17T00:02:34;93598.31;;;5.51;80.30
30935;BME280;51033;42.648;23.292;2022-12-17T00:05:17;93626.31;;;5.29;81.18
30935;BME280;51033;42.648;23.292;2022-12-17T00:08:01;93631.38;;;5.25;81.79
30935;BME280;51033;42.648;23.292;2022-12-17T00:10:45;93630.25;;;5.50;81.42
30935;BME280;51033;42.648;23.292;2022-12-17T00:13:29;93610.94;;;5.36;81.51
30935;BME280;51033;42.648;23.292;2022-12-17T00:16:13;93609.50;;;5.25;82.46
30935;BME280;51033;42.648;23.292;2022-12-17T00:18:57;93622.84;;;5.33;82.02
30935;BME280;51033;42.648;23.292;2022-12-17T00:21:41;93616.56;;;5.48;81.72
30935;BME280;51033;42.648;23.292;2022-12-17T00:24:24;93628.09;;;5.71;80.84
30935;BME280;51033;42.648;23.292;2022-12-17T00:27:09;93625.53;;;5.66;80.66
30935;BME280;51033;42.648;23.292;2022-12-17T00:29:53;93620.75;;;5.86;80.16
30935;BME280;51033;42.648;23.292;2022-12-17T00:32:36;93590.81;;;5.77;80.02
30935;BME280;51033;42.648;23.292;2022-12-17T00:35:20;93612.31;;;5.84;80.19
30935;BME280;51033;42.648;23.292;2022-12-17T00:38:04;93627.09;;;5.85;80.44
30935;BME280;51033;42.648;23.292;2022-12-17T00:40:52;93596.31;;;5.94;79.69
30935;BME280;51033;42.648;23.292;2022-12-17T00:43:36;93609.69;;;5.84;80.32
30935;BME280;51033;42.648;23.292;2022-12-17T00:46:20;93595.56;;;5.75;80.61
30935;BME280;51033;42.648;23.292;2022-12-17T00:49:03;93618.53;;;5.75;80.38
30935;BME280;51033;42.648;23.292;2022-12-17T00:51:47;93591.28;;;5.79;80.65
30935;BME280;51033;42.648;23.292;2022-12-17T00:54:31;93603.41;;;5.80;79.65
30935;BME280;51033;42.648;23.292;2022-12-17T00:57:15;93578.09;;;5.79;79.86
30935;BME280;51033;42.648;23.292;2022-12-17T00:59:59;93575.78;;;5.91;79.51
30935;BME280;51033;42.648;23.292;2022-12-17T01:02:43;93596.56;;;6.12;78.91
30935;BME280;51033;42.648;23.292;2022-12-17T01:05:26;93594.78;;;6.26;77.91
30935;BME280;51033;42.648;23.292;2022-12-17T01:08:13;93593.78;;;6.22;78.55
30935;BME280;51033;42.648;23.292;2022-12-17T01:10:59;93597.78;;;5.87;80.00
30935;BME280;51033;42.648;23.292;2022-12-17T01:13:43;93579.31;;;5.68;78.86
30935;BME280;51033;42.648;23.292;2022-12-17T01:16:27;93602.06;;;5.64;80.47
30935;BME280;51033;42.648;23.292;2022-12-17T01:19:11;93566.22;;;5.44;80.07
30935;BME280;51033;42.648;23.292;2022-12-17T01:21:56;93625.09;;;5.96;79.27
30935;BME280;51033;42.648;23.292;2022-12-17T01:24:39;93591.78;;;5.81;79.48
30935;BME280;51033;42.648;23.292;2022-12-17T01:27:23;93617.88;;;6.02;79.20
30935;BME280;51033;42.648;23.292;2022-12-17T01:30:07;93620.03;;;6.13;78.77
30935;BME280;51033;42.648;23.292;2022-12-17T01:32:51;93606.22;;;6.02;79.33
30935;BME280;51033;42.648;23.292;2022-12-17T01:35:35;93631.31;;;5.86;79.98
30935;BME280;51033;42.648;23.292;2022-12-17T01:38:19;93616.28;;;6.00;79.67
30935;BME280;51033;42.648;23.292;2022-12-17T01:41:04;93598.38;;;5.97;79.85
30935;BME280;51033;42.648;23.292;2022-12-17T01:43:48;93623.63;;;5.71;80.53
30935;BME280;51033;42.648;23.292;2022-12-17T01:46:35;93612.06;;;5.48;81.26
30935;BME280;51033;42.648;23.292;2022-12-17T01:49:21;93573.34;;;5.63;81.70
30935;BME280;51033;42.648;23.292;2022-12-17T01:52:09;93598.78;;;5.53;81.07
30935;BME280;51033;42.648;23.292;2022-12-17T01:54:54;93612.22;;;5.57;82.52
30935;BME280;51033;42.648;23.292;2022-12-17T01:57:38;93604.66;;;6.02;80.75
30935;BME280;51033;42.648;23.292;2022-12-17T02:00:23;93593.69;;;5.94;80.87
30935;BME280;51033;42.648;23.292;2022-12-17T02:03:14;93592.38;;;6.11;80.51
30935;BME280;51033;42.648;23.292;2022-12-17T02:06:23;93598.44;;;5.92;81.22
30935;BME280;51033;42.648;23.292;2022-12-17T02:12:11;93601.00;;;5.97;81.14
30935;BME280;51033;42.648;23.292;2022-12-17T02:15:11;93559.19;;;6.05;80.84
30935;BME280;51033;42.648;23.292;2022-12-17T02:18:00;93593.78;;;6.03;81.34
30935;BME280;51033;42.648;23.292;2022-12-17T02:20:50;93572.63;;;5.76;81.62
30935;BME280;51033;42.648;23.292;2022-12-17T02:23:55;93564.47;;;6.05;81.19
30935;BME280;51033;42.648;23.292;2022-12-17T02:26:46;93564.66;;;6.08;81.36
30935;BME280;51033;42.648;23.292;2022-12-17T02:29:38;93589.31;;;6.04;81.05
30935;BME280;51033;42.648;23.292;2022-12-17T02:32:25;93572.38;;;6.23;80.57
30935;BME280;51033;42.648;23.292;2022-12-17T02:35:13;93576.31;;;6.53;79.82
30935;BME280;51033;42.648;23.292;2022-12-17T02:37:58;93571.03;;;6.07;81.41
30935;BME280;51033;42.648;23.292;2022-12-17T02:40:44;93560.19;;;6.09;81.50
30935;BME280;51033;42.648;23.292;2022-12-17T02:43:29;93548.16;;;5.70;82.48
30935;BME280;51033;42.648;23.292;2022-12-17T02:46:15;93567.91;;;5.73;83.36
30935;BME280;51033;42.648;23.292;2022-12-17T02:48:59;93562.09;;;5.89;82.96
30935;BME280;51033;42.648;23.292;2022-12-17T02:51:43;93541.03;;;6.17;81.22
30935;BME280;51033;42.648;23.292;2022-12-17T02:54:32;93525.25;;;6.12;79.99
30935;BME280;51033;42.648;23.292;2022-12-17T02:57:17;93518.06;;;5.71;81.51
30935;BME280;51033;42.648;23.292;2022-12-17T03:00:02;93543.88;;;5.74;83.87
30935;BME280;51033;42.648;23.292;2022-12-17T03:02:46;93535.78;;;5.84;83.28
30935;BME280;51033;42.648;23.292;2022-12-17T03:05:30;93502.59;;;5.65;83.37
30935;BME280;51033;42.648;23.292;2022-12-17T03:08:14;93526.47;;;5.73;83.62
30935;BME280;51033;42.648;23.292;2022-12-17T03:10:58;93525.22;;;6.44;81.04
30935;BME280;51033;42.648;23.292;2022-12-17T03:13:42;93498.38;;;6.10;81.57
30935;BME280;51033;42.648;23.292;2022-12-17T03:16:26;93520.59;;;5.44;84.70
30935;BME280;51033;42.648;23.292;2022-12-17T03:19:10;93515.88;;;5.60;83.88
30935;BME280;51033;42.648;23.292;2022-12-17T03:21:55;93478.81;;;5.19;84.97
30935;BME280;51033;42.648;23.292;2022-12-17T03:24:58;93517.50;;;5.42;84.91
30935;BME280;51033;42.648;23.292;2022-12-17T03:27:43;93512.16;;;5.09;86.15
30935;BME280;51033;42.648;23.292;2022-12-17T03:30:26;93516.72;;;5.23;86.13
30935;BME280;51033;42.648;23.292;2022-12-17T03:33:11;93542.38;;;5.17;86.15
30935;BME280;51033;42.648;23.292;2022-12-17T03:35:54;93538.50;;;5.47;84.96
30935;BME280;51033;42.648;23.292;2022-12-17T03:38:38;93518.06;;;5.71;83.84
30935;BME280;51033;42.648;23.292;2022-12-17T03:41:22;93501.81;;;5.96;82.36
30935;BME280;51033;42.648;23.292;2022-12-17T03:44:07;93511.69;;;6.05;81.36
30935;BME280;51033;42.648;23.292;2022-12-17T03:46:51;93527.78;;;5.89;81.44
30935;BME280;51033;42.648;23.292;2022-12-17T03:49:35;93542.22;;;5.78;82.83
30935;BME280;51033;42.648;23.292;2022-12-17T03:52:18;93541.88;;;5.98;82.25
30935;BME280;51033;42.648;23.292;2022-12-17T03:55:03;93545.56;;;6.16;81.55
30935;BME280;51033;42.648;23.292;2022-12-17T03:57:47;93527.97;;;6.39;81.01
30935;BME280;51033;42.648;23.292;2022-12-17T04:00:31;93532.66;;;6.42;80.28
30935;BME280;51033;42.648;23.292;2022-12-17T04:03:15;93519.66;;;6.32;80.96
30935;BME280;51033;42.648;23.292;2022-12-17T04:05:59;93557.50;;;6.41;80.65
30935;BME280;51033;42.648;23.292;2022-12-17T04:08:43;93526.13;;;6.53;80.01
30935;BME280;51033;42.648;23.292;2022-12-17T04:11:27;93529.53;;;6.67;79.92
30935;BME280;51033;42.648;23.292;2022-12-17T04:14:11;93521.50;;;6.72;79.47
30935;BME280;51033;42.648;23.292;2022-12-17T04:16:55;93527.16;;;6.66;79.23
30935;BME280;51033;42.648;23.292;2022-12-17T04:19:39;93526.03;;;6.45;79.55
30935;BME280;51033;42.648;23.292;2022-12-17T04:22:22;93516.81;;;6.69;79.27
30935;BME280;51033;42.648;23.292;2022-12-17T04:25:06;93542.81;;;6.76;78.47
30935;BME280;51033;42.648;23.292;2022-12-17T04:27:50;93534.91;;;6.76;78.22
30935;BME280;51033;42.648;23.292;2022-12-17T04:30:34;93539.81;;;6.69;79.03
30935;BME280;51033;42.648;23.292;2022-12-17T04:33:18;93538.13;;;6.86;78.02
30935;BME280;51033;42.648;23.292;2022-12-17T04:36:02;93521.88;;;6.66;78.01
30935;BME280;51033;42.648;23.292;2022-12-17T04:38:46;93512.50;;;6.73;78.83
30935;BME280;51033;42.648;23.292;2022-12-17T04:41:30;93524.94;;;6.32;79.81
30935;BME280;51033;42.648;23.292;2022-12-17T04:44:14;93554.56;;;6.42;80.54
30935;BME280;51033;42.648;23.292;2022-12-17T04:46:58;93546.47;;;6.39;81.02
30935;BME280;51033;42.648;23.292;2022-12-17T04:49:42;93575.16;;;6.46;80.04
30935;BME280;51033;42.648;23.292;2022-12-17T04:52:26;93579.34;;;6.60;80.22
30935;BME280;51033;42.648;23.292;2022-12-17T04:55:10;93574.75;;;6.66;79.86
30935;BME280;51033;42.648;23.292;2022-12-17T04:57:54;93561.72;;;6.56;79.94
30935;BME280;51033;42.648;23.292;2022-12-17T05:00:43;93577.88;;;6.68;80.47
30935;BME280;51033;42.648;23.292;2022-12-17T05:03:27;93591.56;;;6.56;80.46
30935;BME280;51033;42.648;23.292;2022-12-17T05:06:11;93565.94;;;6.43;81.01
30935;BME280;51033;42.648;23.292;2022-12-17T05:08:54;93591.00;;;6.73;80.23
30935;BME280;51033;42.648;23.292;2022-12-17T05:11:38;93598.19;;;6.26;82.06
30935;BME280;51033;42.648;23.292;2022-12-17T05:14:22;93599.41;;;6.61;80.50
30935;BME280;51033;42.648;23.292;2022-12-17T05:17:06;93624.66;;;6.67;80.37
30935;BME280;51033;42.648;23.292;2022-12-17T05:19:49;93609.41;;;6.92;79.42
30935;BME280;51033;42.648;23.292;2022-12-17T05:22:33;93601.16;;;7.07;78.87
30935;BME280;51033;42.648;23.292;2022-12-17T05:25:17;93605.38;;;6.80;79.05
30935;BME280;51033;42.648;23.292;2022-12-17T05:28:00;93606.84;;;6.86;78.57
30935;BME280;51033;42.648;23.292;2022-12-17T05:30:53;93551.06;;;6.61;78.46
30935;BME280;51033;42.648;23.292;2022-12-17T05:33:37;93585.22;;;6.84;78.40
30935;BME280;51033;42.648;23.292;2022-12-17T05:36:21;93622.81;;;7.09;77.13
30935;BME280;51033;42.648;23.292;2022-12-17T05:39:05;93591.75;;;6.46;79.56
30935;BME280;51033;42.648;23.292;2022-12-17T05:41:49;93589.03;;;6.78;79.27
30935;BME280;51033;42.648;23.292;2022-12-17T05:44:33;93605.78;;;6.88;78.98
30935;BME280;51033;42.648;23.292;2022-12-17T05:47:17;93593.72;;;6.81;79.19
30935;BME280;51033;42.648;23.292;2022-12-17T05:50:00;93573.19;;;6.78;78.84
30935;BME280;51033;42.648;23.292;2022-12-17T05:52:44;93599.13;;;7.04;78.20
30935;BME280;51033;42.648;23.292;2022-12-17T05:55:28;93595.72;;;6.90;78.42
30935;BME280;51033;42.648;23.292;2022-12-17T05:58:13;93578.34;;;6.97;77.72
30935;BME280;51033;42.648;23.292;2022-12-17T06:00:58;93574.06;;;6.74;78.47
30935;BME280;51033;42.648;23.292;2022-12-17T06:03:43;93600.38;;;6.65;80.37
30935;BME280;51033;42.648;23.292;2022-12-17T06:06:47;93619.88;;;6.69;80.15
30935;BME280;51033;42.648;23.292;2022-12-17T06:09:30;93618.41;;;6.91;79.72
30935;BME280;51033;42.648;23.292;2022-12-17T06:12:22;93624.09;;;6.98;78.90
30935;BME280;51033;42.648;23.292;2022-12-17T06:15:06;93618.03;;;6.83;78.81
30935;BME280;51033;42.648;23.292;2022-12-17T06:17:56;93601.56;;;6.86;78.87
30935;BME280;51033;42.648;23.292;2022-12-17T06:20:41;93620.94;;;7.09;78.66
30935;BME280;51033;42.648;23.292;2022-12-17T06:23:25;93661.78;;;7.17;78.00
30935;BME280;51033;42.648;23.292;2022-12-17T06:26:09;93648.53;;;7.30;77.51
30935;BME280;51033;42.648;23.292;2022-12-17T06:28:53;93670.09;;;7.24;78.22
30935;BME280;51033;42.648;23.292;2022-12-17T06:31:37;93671.88;;;7.15;78.39
30935;BME280;51033;42.648;23.292;2022-12-17T06:34:21;93664.72;;;7.02;78.66
30935;BME280;51033;42.648;23.292;2022-12-17T06:37:05;93668.75;;;6.99;79.48
30935;BME280;51033;42.648;23.292;2022-12-17T06:39:49;93686.38;;;7.17;79.30
30935;BME280;51033;42.648;23.292;2022-12-17T06:42:33;93688.31;;;7.39;78.73
30935;BME280;51033;42.648;23.292;2022-12-17T06:45:17;93698.59;;;7.41;79.21
30935;BME280;51033;42.648;23.292;2022-12-17T06:48:04;93662.81;;;7.57;78.88
30935;BME280;51033;42.648;23.292;2022-12-17T06:50:49;93689.06;;;7.67;78.23
30935;BME280;51033;42.648;23.292;2022-12-17T06:53:33;93664.94;;;7.82;77.80
30935;BME280;51033;42.648;23.292;2022-12-17T06:56:16;93671.78;;;7.83;77.88
30935;BME280;51033;42.648;23.292;2022-12-17T06:59:00;93684.72;;;7.85;78.45
30935;BME280;51033;42.648;23.292;2022-12-17T07:01:44;93681.38;;;7.93;78.14
30935;BME280;51033;42.648;23.292;2022-12-17T07:04:28;93763.44;;;8.06;78.31
30935;BME280;51033;42.648;23.292;2022-12-17T07:07:12;93768.31;;;8.13;77.93
30935;BME280;51033;42.648;23.292;2022-12-17T07:09:56;93784.09;;;8.18;77.47
30935;BME280;51033;42.648;23.292;2022-12-17T07:12:40;93781.84;;;8.25;77.43
30935;BME280;51033;42.648;23.292;2022-12-17T07:15:23;93819.06;;;8.06;77.65
30935;BME280;51033;42.648;23.292;2022-12-17T07:18:07;93853.16;;;8.35;77.18
30935;BME280;51033;42.648;23.292;2022-12-17T07:20:52;93848.63;;;8.49;77.17
30935;BME280;51033;42.648;23.292;2022-12-17T07:23:36;93794.38;;;7.84;79.95
30935;BME280;51033;42.648;23.292;2022-12-17T07:26:20;93779.44;;;7.88;81.34
30935;BME280;51033;42.648;23.292;2022-12-17T07:29:04;93775.19;;;8.14;80.63
30935;BME280;51033;42.648;23.292;2022-12-17T07:31:48;93757.81;;;8.22;80.84
30935;BME280;51033;42.648;23.292;2022-12-17T07:34:32;93712.72;;;8.57;79.89
30935;BME280;51033;42.648;23.292;2022-12-17T07:37:16;93728.34;;;8.90;78.76
30935;BME280;51033;42.648;23.292;2022-12-17T07:40:01;93729.78;;;9.18;78.85
30935;BME280;51033;42.648;23.292;2022-12-17T07:42:45;93766.53;;;9.33;80.02
30935;BME280;51033;42.648;23.292;2022-12-17T07:45:29;93722.09;;;9.56;76.63
30935;BME280;51033;42.648;23.292;2022-12-17T07:48:12;93713.41;;;9.81;74.83
30935;BME280;51033;42.648;23.292;2022-12-17T07:50:56;93733.44;;;9.87;74.17
30935;BME280;51033;42.648;23.292;2022-12-17T07:53:40;93712.66;;;10.24;73.65
30935;BME280;51033;42.648;23.292;2022-12-17T07:56:24;93645.25;;;10.28;73.17
30935;BME280;51033;42.648;23.292;2022-12-17T07:59:08;93650.53;;;10.71;71.28
30935;BME280;51033;42.648;23.292;2022-12-17T08:01:52;93658.50;;;10.80;69.38
30935;BME280;51033;42.648;23.292;2022-12-17T08:04:36;93635.47;;;10.84;68.91
30935;BME280;51033;42.648;23.292;2022-12-17T08:07:20;93652.28;;;11.14;66.33
30935;BME280;51033;42.648;23.292;2022-12-17T08:10:04;93678.69;;;11.28;65.67
30935;BME280;51033;42.648;23.292;2022-12-17T08:12:56;93684.75;;;11.37;65.79
30935;BME280;51033;42.648;23.292;2022-12-17T08:15:51;93684.97;;;11.61;63.62
30935;BME280;51033;42.648;23.292;2022-12-17T08:18:36;93710.50;;;11.62;60.81
30935;BME280;51033;42.648;23.292;2022-12-17T08:21:19;93719.41;;;11.66;60.92
30935;BME280;51033;42.648;23.292;2022-12-17T08:24:04;93748.91;;;11.90;61.43
30935;BME280;51033;42.648;23.292;2022-12-17T08:26:48;93732.84;;;11.70;59.32
30935;BME280;51033;42.648;23.292;2022-12-17T08:29:31;93734.59;;;11.95;61.13
30935;BME280;51033;42.648;23.292;2022-12-17T08:32:16;93711.09;;;11.97;60.75
30935;BME280;51033;42.648;23.292;2022-12-17T08:35:00;93714.41;;;12.15;59.00
30935;BME280;51033;42.648;23.292;2022-12-17T08:37:44;93732.16;;;12.11;60.99
30935;BME280;51033;42.648;23.292;2022-12-17T08:40:28;93716.75;;;12.16;61.58
30935;BME280;51033;42.648;23.292;2022-12-17T08:43:12;93698.47;;;12.27;60.40
30935;BME280;51033;42.648;23.292;2022-12-17T08:45:56;93704.72;;;12.52;57.77
30935;BME280;51033;42.648;23.292;2022-12-17T08:48:40;93711.88;;;12.39;59.21
30935;BME280;51033;42.648;23.292;2022-12-17T08:51:24;93729.47;;;12.52;59.09
30935;BME280;51033;42.648;23.292;2022-12-17T08:54:08;93748.72;;;12.58;59.33
30935;BME280;51033;42.648;23.292;2022-12-17T08:56:53;93737.78;;;12.59;56.74
30935;BME280;51033;42.648;23.292;2022-12-17T08:59:37;93772.50;;;12.30;61.35
30935;BME280;51033;42.648;23.292;2022-12-17T09:02:22;93738.13;;;11.49;66.10
30935;BME280;51033;42.648;23.292;2022-12-17T09:05:06;93726.16;;;11.64;65.83
30935;BME280;51033;42.648;23.292;2022-12-17T09:08:01;93740.56;;;11.25;67.98
30935;BME280;51033;42.648;23.292;2022-12-17T09:10:46;93805.75;;;10.76;70.77
30935;BME280;51033;42.648;23.292;2022-12-17T09:13:29;93799.94;;;10.82;70.76
30935;BME280;51033;42.648;23.292;2022-12-17T09:16:14;93798.06;;;11.08;70.85
30935;BME280;51033;42.648;23.292;2022-12-17T09:18:58;93765.69;;;11.53;67.99
30935;BME280;51033;42.648;23.292;2022-12-17T09:21:42;93776.72;;;11.72;68.25
30935;BME280;51033;42.648;23.292;2022-12-17T09:24:26;93794.56;;;11.80;67.46
30935;BME280;51033;42.648;23.292;2022-12-17T09:27:10;93796.88;;;11.90;66.61
30935;BME280;51033;42.648;23.292;2022-12-17T09:29:54;93799.06;;;11.88;67.59
30935;BME280;51033;42.648;23.292;2022-12-17T09:32:38;93804.47;;;11.71;68.15
30935;BME280;51033;42.648;23.292;2022-12-17T09:35:22;93826.78;;;11.58;69.08
30935;BME280;51033;42.648;23.292;2022-12-17T09:38:09;93830.53;;;11.40;70.43
30935;BME280;51033;42.648;23.292;2022-12-17T09:40:53;93844.63;;;11.40;70.79
30935;BME280;51033;42.648;23.292;2022-12-17T09:43:51;93855.00;;;11.33;70.88
30935;BME280;51033;42.648;23.292;2022-12-17T09:46:45;93883.34;;;11.21;69.95
30935;BME280;51033;42.648;23.292;2022-12-17T09:49:33;93867.84;;;11.05;67.28
30935;BME280;51033;42.648;23.292;2022-12-17T09:52:26;93886.66;;;11.09;66.40
30935;BME280;51033;42.648;23.292;2022-12-17T09:58:18;93869.41;;;11.32;66.12
30935;BME280;51033;42.648;23.292;2022-12-17T10:01:04;93899.78;;;11.31;68.11
30935;BME280;51033;42.648;23.292;2022-12-17T10:03:49;93801.03;;;11.07;67.09
30935;BME280;51033;42.648;23.292;2022-12-17T10:06:34;93824.16;;;11.15;66.38
30935;BME280;51033;42.648;23.292;2022-12-17T10:09:18;93801.19;;;11.02;69.59
30935;BME280;51033;42.648;23.292;2022-12-17T10:12:14;93818.41;;;11.04;69.21
30935;BME280;51033;42.648;23.292;2022-12-17T10:15:00;93858.97;;;10.84;67.82
30935;BME280;51033;42.648;23.292;2022-12-17T10:17:45;93874.28;;;10.70;69.54
30935;BME280;51033;42.648;23.292;2022-12-17T10:21:04;93908.53;;;10.63;69.68
30935;BME280;51033;42.648;23.292;2022-12-17T10:23:40;93906.38;;;10.17;72.43
30935;BME280;51033;42.648;23.292;2022-12-17T10:26:26;93883.94;;;9.61;73.89
30935;BME280;51033;42.648;23.292;2022-12-17T10:29:19;93863.88;;;9.24;75.69
30935;BME280;51033;42.648;23.292;2022-12-17T10:35:12;93895.03;;;8.96;78.41
30935;BME280;51033;42.648;23.292;2022-12-17T10:38:00;93844.75;;;8.69;78.20
30935;BME280;51033;42.648;23.292;2022-12-17T10:40:45;93874.09;;;8.73;78.97
30935;BME280;51033;42.648;23.292;2022-12-17T10:43:33;93879.59;;;8.63;79.76
30935;BME280;51033;42.648;23.292;2022-12-17T10:46:32;93878.13;;;8.56;80.08
30935;BME280;51033;42.648;23.292;2022-12-17T10:49:17;93901.78;;;8.67;80.47
30935;BME280;51033;42.648;23.292;2022-12-17T10:52:26;93842.25;;;8.50;80.63
30935;BME280;51033;42.648;23.292;2022-12-17T10:55:24;93846.09;;;8.67;80.18
30935;BME280;51033;42.648;23.292;2022-12-17T10:58:14;93839.59;;;8.73;78.55
30935;BME280;51033;42.648;23.292;2022-12-17T11:01:00;93827.44;;;8.94;77.25
30935;BME280;51033;42.648;23.292;2022-12-17T11:06:45;93759.44;;;8.98;78.12
30935;BME280;51033;42.648;23.292;2022-12-17T11:12:31;93753.97;;;9.25;74.80
30935;BME280;51033;42.648;23.292;2022-12-17T11:15:25;93763.47;;;9.49;72.87
30935;BME280;51033;42.648;23.292;2022-12-17T11:18:16;93751.47;;;9.60;72.13
30935;BME280;51033;42.648;23.292;2022-12-17T11:21:19;93760.41;;;9.72;71.86
30935;BME280;51033;42.648;23.292;2022-12-17T11:24:09;93787.66;;;9.95;71.79
30935;BME280;51033;42.648;23.292;2022-12-17T11:26:57;93786.72;;;10.08;69.07
30935;BME280;51033;42.648;23.292;2022-12-17T11:29:42;93792.41;;;10.24;67.68
30935;BME280;51033;42.648;23.292;2022-12-17T11:36:00;93805.75;;;10.58;67.28
30935;BME280;51033;42.648;23.292;2022-12-17T11:39:40;93830.94;;;10.61;67.40
30935;BME280;51033;42.648;23.292;2022-12-17T11:42:30;93813.25;;;10.48;67.02
30935;BME280;51033;42.648;23.292;2022-12-17T11:48:44;93853.00;;;10.70;66.33
30935;BME280;51033;42.648;23.292;2022-12-17T11:54:54;93856.78;;;10.95;66.57
30935;BME280;51033;42.648;23.292;2022-12-17T12:07:14;93858.19;;;10.84;76.11
30935;BME280;51033;42.648;23.292;2022-12-17T12:10:34;93844.69;;;10.63;75.04
30935;BME280;51033;42.648;23.292;2022-12-17T12:13:39;93870.03;;;10.52;77.06
30935;BME280;51033;42.648;23.292;2022-12-17T12:16:35;93877.88;;;10.91;75.07
30935;BME280;51033;42.648;23.292;2022-12-17T12:19:32;93856.31;;;10.10;77.56
30935;BME280;51033;42.648;23.292;2022-12-17T12:28:58;93891.91;;;9.92;80.99
30935;BME280;51033;42.648;23.292;2022-12-17T12:34:47;93891.16;;;10.48;78.67
30935;BME280;51033;42.648;23.292;2022-12-17T12:37:33;93877.41;;;10.72;76.83
30935;BME280;51033;42.648;23.292;2022-12-17T12:40:41;93863.50;;;10.75;76.90
30935;BME280;51033;42.648;23.292;2022-12-17T12:43:31;93871.78;;;10.91;75.29
30935;BME280;51033;42.648;23.292;2022-12-17T12:49:25;93850.34;;;10.87;76.35
30935;BME280;51033;42.648;23.292;2022-12-17T12:52:21;93867.72;;;11.19;75.37
30935;BME280;51033;42.648;23.292;2022-12-17T12:55:06;93855.78;;;11.34;72.94
30935;BME280;51033;42.648;23.292;2022-12-17T12:57:59;93858.78;;;11.24;73.17
30935;BME280;51033;42.648;23.292;2022-12-17T13:03:37;93867.06;;;11.39;72.23
30935;BME280;51033;42.648;23.292;2022-12-17T13:11:52;93854.41;;;11.10;72.49
30935;BME280;51033;42.648;23.292;2022-12-17T13:14:23;93868.44;;;11.45;72.18
30935;BME280;51033;42.648;23.292;2022-12-17T13:17:03;93864.34;;;11.65;71.56
30935;BME280;51033;42.648;23.292;2022-12-17T13:24:39;93888.13;;;11.87;70.88
30935;BME280;51033;42.648;23.292;2022-12-17T13:27:28;93889.22;;;11.86;70.66
30935;BME280;51033;42.648;23.292;2022-12-17T13:29:55;93888.44;;;11.86;70.50
30935;BME280;51033;42.648;23.292;2022-12-17T13:32:29;93872.88;;;11.15;73.44
30935;BME280;51033;42.648;23.292;2022-12-17T13:35:18;93880.34;;;11.65;71.91
30935;BME280;51033;42.648;23.292;2022-12-17T13:40:40;93890.88;;;11.53;72.76
30935;BME280;51033;42.648;23.292;2022-12-17T13:43:19;93894.31;;;11.36;73.28
30935;BME280;51033;42.648;23.292;2022-12-17T13:45:45;93901.22;;;11.29;73.56
30935;BME280;51033;42.648;23.292;2022-12-17T13:48:20;93901.00;;;10.48;77.44
30935;BME280;51033;42.648;23.292;2022-12-17T13:51:19;93897.75;;;10.59;76.54
30935;BME280;51033;42.648;23.292;2022-12-17T13:53:59;93894.56;;;10.40;77.28
30935;BME280;51033;42.648;23.292;2022-12-17T13:56:30;93895.72;;;10.65;76.50
30935;BME280;51033;42.648;23.292;2022-12-17T13:58:58;93909.50;;;10.84;75.17
30935;BME280;51033;42.648;23.292;2022-12-17T14:01:27;93904.38;;;11.05;74.81
30935;BME280;51033;42.648;23.292;2022-12-17T14:03:55;93886.97;;;11.25;73.54
30935;BME280;51033;42.648;23.292;2022-12-17T14:06:22;93898.22;;;10.87;75.24
30935;BME280;51033;42.648;23.292;2022-12-17T14:08:50;93915.31;;;11.21;73.77
30935;BME280;51033;42.648;23.292;2022-12-17T14:11:17;93903.84;;;10.77;74.69
30935;BME280;51033;42.648;23.292;2022-12-17T14:14:01;93913.41;;;10.78;74.91
30935;BME280;51033;42.648;23.292;2022-12-17T14:16:27;93912.03;;;10.89;73.73
30935;BME280;51033;42.648;23.292;2022-12-17T14:18:56;93922.13;;;10.13;77.05
30935;BME280;51033;42.648;23.292;2022-12-17T14:21:23;93922.75;;;9.49;80.62
30935;BME280;51033;42.648;23.292;2022-12-17T14:23:50;93926.50;;;10.09;77.97
30935;BME280;51033;42.648;23.292;2022-12-17T14:26:16;93939.94;;;10.52;75.94
30935;BME280;51033;42.648;23.292;2022-12-17T14:28:51;93950.81;;;10.73;74.50
30935;BME280;51033;42.648;23.292;2022-12-17T14:31:26;93954.41;;;10.86;73.91
30935;BME280;51033;42.648;23.292;2022-12-17T14:34:06;93944.09;;;10.84;73.12
30935;BME280;51033;42.648;23.292;2022-12-17T14:36:36;93948.63;;;10.92;73.38
30935;BME280;51033;42.648;23.292;2022-12-17T14:39:14;93926.56;;;10.83;73.06
30935;BME280;51033;42.648;23.292;2022-12-17T14:41:40;93948.50;;;10.97;72.60
30935;BME280;51033;42.648;23.292;2022-12-17T14:44:27;93933.31;;;10.98;72.22
30935;BME280;51033;42.648;23.292;2022-12-17T14:47:16;93938.16;;;10.96;71.68
30935;BME280;51033;42.648;23.292;2022-12-17T14:49:53;93950.38;;;11.05;71.26
30935;BME280;51033;42.648;23.292;2022-12-17T14:52:41;93952.09;;;10.84;71.35
30935;BME280;51033;42.648;23.292;2022-12-17T14:58:05;93973.06;;;11.03;70.73
30935;BME280;51033;42.648;23.292;2022-12-17T15:00:30;93973.00;;;10.60;71.82
30935;BME280;51033;42.648;23.292;2022-12-17T15:02:56;93957.84;;;9.99;74.51
30935;BME280;51033;42.648;23.292;2022-12-17T15:05:21;93952.66;;;10.24;72.83
30935;BME280;51033;42.648;23.292;2022-12-17T15:07:47;93949.13;;;10.38;71.42
30935;BME280;51033;42.648;23.292;2022-12-17T15:10:16;93972.22;;;10.59;71.34
30935;BME280;51033;42.648;23.292;2022-12-17T15:12:43;93971.06;;;10.52;70.69
30935;BME280;51033;42.648;23.292;2022-12-17T15:15:15;93981.97;;;10.42;71.20
30935;BME280;51033;42.648;23.292;2022-12-17T15:17:41;93983.22;;;10.36;71.12
30935;BME280;51033;42.648;23.292;2022-12-17T15:20:08;93969.84;;;10.27;71.55
30935;BME280;51033;42.648;23.292;2022-12-17T15:22:41;93993.59;;;10.46;70.38
30935;BME280;51033;42.648;23.292;2022-12-17T15:25:11;93988.75;;;10.48;70.19
30935;BME280;51033;42.648;23.292;2022-12-17T15:27:36;93977.72;;;10.01;72.38
30935;BME280;51033;42.648;23.292;2022-12-17T15:30:02;93977.22;;;10.21;70.79
30935;BME280;51033;42.648;23.292;2022-12-17T15:32:27;93992.16;;;10.17;70.51